createdAt,value
2018-04-23T00:00:04.752Z,6.53
2018-04-23T00:02:33.560Z,6.03
2018-04-23T00:05:02.391Z,7.33
2018-04-23T00:07:31.197Z,8.77
2018-04-23T00:10:00.283Z,6.70
2018-04-23T00:12:29.403Z,7.07
2018-04-23T00:14:58.540Z,8.27
2018-04-23T00:17:27.636Z,8.80
2018-04-23T00:19:56.479Z,6.30
2018-04-23T00:22:25.300Z,7.50
2018-04-23T00:24:54.299Z,8.63
2018-04-23T00:27:23.475Z,6.83
2018-04-23T00:29:52.572Z,9.57
2018-04-23T00:32:21.435Z,6.00
2018-04-23T00:34:50.238Z,7.73
2018-04-23T00:37:19.662Z,7.23
2018-04-23T00:39:48.782Z,10.90
2018-04-23T00:42:17.884Z,7.77
2018-04-23T00:44:47.002Z,9.93
2018-04-23T00:47:16.206Z,6.53
2018-04-23T00:49:45.339Z,8.03
2018-04-23T00:52:14.527Z,9.43
2018-04-23T00:54:43.656Z,6.83
2018-04-23T00:57:12.748Z,5.43
2018-04-23T00:59:41.876Z,5.77
2018-04-23T01:02:10.964Z,7.57
2018-04-23T01:04:40.091Z,9.37
2018-04-23T01:07:09.223Z,8.27
2018-04-23T01:09:38.388Z,8.80
2018-04-23T01:12:07.487Z,8.50
2018-04-23T01:14:36.611Z,6.97
2018-04-23T01:17:05.735Z,8.93
2018-04-23T01:19:34.861Z,6.90
2018-04-23T01:22:03.970Z,7.77
2018-04-23T01:24:33.071Z,8.87
2018-04-23T01:27:02.194Z,10.17
2018-04-23T01:29:31.284Z,8.20
2018-04-23T01:32:00.406Z,6.80
2018-04-23T01:34:29.511Z,8.17
2018-04-23T01:36:58.642Z,8.50
2018-04-23T01:39:27.767Z,5.53
2018-04-23T01:41:56.871Z,11.70
2018-04-23T01:44:25.997Z,7.57
2018-04-23T01:46:55.100Z,7.60
2018-04-23T01:49:24.225Z,6.87
2018-04-23T01:51:53.327Z,6.87
2018-04-23T01:54:22.515Z,7.17
2018-04-23T01:56:51.618Z,7.73
2018-04-23T01:59:20.746Z,9.30
2018-04-23T02:01:49.848Z,10.73
2018-04-23T02:04:18.948Z,6.93
2018-04-23T02:06:48.072Z,11.17
2018-04-23T02:09:17.183Z,14.37
2018-04-23T02:11:46.322Z,7.13
2018-04-23T02:14:15.417Z,7.50
2018-04-23T02:16:44.550Z,8.57
2018-04-23T02:19:13.656Z,9.50
2018-04-23T02:21:42.787Z,10.43
2018-04-23T02:24:11.971Z,8.93
2018-04-23T02:26:41.106Z,12.00
2018-04-23T02:29:10.214Z,9.70
2018-04-23T02:31:39.314Z,6.33
2018-04-23T02:34:08.435Z,7.17
2018-04-23T02:36:37.661Z,8.87
2018-04-23T02:48:51.788Z,7.50
2018-04-23T02:51:20.896Z,8.83
2018-04-23T02:53:50.040Z,10.07
2018-04-23T02:56:19.128Z,7.20
2018-04-23T02:58:48.259Z,6.53
2018-04-23T03:01:17.360Z,7.97
2018-04-23T03:03:46.492Z,6.57
2018-04-23T03:06:15.643Z,7.57
2018-04-23T03:08:44.838Z,6.50
2018-04-23T03:11:13.955Z,6.83
2018-04-23T03:13:43.080Z,8.37
2018-04-23T03:16:12.212Z,9.07
2018-04-23T03:18:41.346Z,5.93
2018-04-23T03:21:10.524Z,8.17
2018-04-23T03:23:39.624Z,5.30
2018-04-23T03:26:08.740Z,7.10
2018-04-23T03:28:37.863Z,6.50
2018-04-23T03:31:06.979Z,6.40
2018-04-23T03:33:36.117Z,8.87
2018-04-23T03:36:05.253Z,8.40
2018-04-23T03:38:34.374Z,7.63
2018-04-23T03:41:03.507Z,7.13
2018-04-23T03:43:32.863Z,6.60
2018-04-23T03:46:01.994Z,7.03
2018-04-23T03:48:31.086Z,7.40
2018-04-23T03:51:00.278Z,7.87
2018-04-23T03:53:29.484Z,8.30
2018-04-23T03:55:58.607Z,7.33
2018-04-23T03:58:27.711Z,11.83
2018-04-23T04:00:56.876Z,10.87
2018-04-23T04:03:25.979Z,10.30
2018-04-23T04:05:55.094Z,6.90
2018-04-23T04:08:24.193Z,5.60
2018-04-23T04:10:53.315Z,8.67
2018-04-23T04:13:28.365Z,8.67
2018-04-23T04:16:03.411Z,8.60
2018-04-23T04:18:38.327Z,7.87
2018-04-23T04:21:07.452Z,7.53
2018-04-23T04:23:38.072Z,8.90
2018-04-23T04:26:07.220Z,9.20
2018-04-23T04:28:36.323Z,10.03
2018-04-23T04:31:05.447Z,6.63
2018-04-23T04:33:34.573Z,9.20
2018-04-23T04:36:03.667Z,8.23
2018-04-23T04:38:32.787Z,9.37
2018-04-23T04:41:01.974Z,5.20
2018-04-23T04:43:31.116Z,8.57
2018-04-23T04:46:00.233Z,9.07
2018-04-23T04:48:29.403Z,5.50
2018-04-23T04:50:58.491Z,7.73
2018-04-23T04:53:27.619Z,7.87
2018-04-23T04:55:56.726Z,6.53
2018-04-23T04:58:25.948Z,7.47
2018-04-23T05:00:55.062Z,7.43
2018-04-23T05:03:24.172Z,7.40
2018-04-23T05:05:53.387Z,6.43
2018-04-23T05:08:22.477Z,12.80
2018-04-23T05:10:51.618Z,11.00
2018-04-23T05:13:20.723Z,7.57
2018-04-23T05:15:49.835Z,8.43
2018-04-23T05:18:18.933Z,7.43
2018-04-23T05:20:48.076Z,7.23
2018-04-23T05:23:17.183Z,7.73
2018-04-23T05:25:46.301Z,9.17
2018-04-23T05:28:15.414Z,9.47
2018-04-23T05:30:44.545Z,5.87
2018-04-23T05:33:13.651Z,11.07
2018-04-23T05:35:42.773Z,5.83
2018-04-23T05:38:11.887Z,9.97
2018-04-23T05:40:41.024Z,8.87
2018-04-23T05:43:10.164Z,9.37
2018-04-23T05:45:39.254Z,8.37
2018-04-23T05:48:08.363Z,8.07
2018-04-23T05:50:37.497Z,7.97
2018-04-23T05:53:06.607Z,9.97
2018-04-23T05:55:35.753Z,6.97
2018-04-23T05:58:04.864Z,6.17
2018-04-23T06:00:33.968Z,6.90
2018-04-23T06:03:03.142Z,7.50
2018-04-23T06:05:32.259Z,7.13
2018-04-23T06:08:01.375Z,5.13
2018-04-23T06:10:30.532Z,4.80
2018-04-23T06:12:59.902Z,5.87
2018-04-23T06:15:29.052Z,5.97
2018-04-23T06:17:58.239Z,7.93
2018-04-23T06:20:27.354Z,8.77
2018-04-23T06:22:56.496Z,8.80
2018-04-23T06:25:25.609Z,7.77
2018-04-23T06:27:54.726Z,14.20
2018-04-23T06:30:23.836Z,14.13
2018-04-23T06:32:52.971Z,8.97
2018-04-23T06:35:22.066Z,10.17
2018-04-23T06:37:51.760Z,8.33
2018-04-23T06:40:20.898Z,11.47
2018-04-23T06:42:49.988Z,9.53
2018-04-23T06:45:19.087Z,8.53
2018-04-23T06:47:48.239Z,6.60
2018-04-23T06:50:17.364Z,8.57
2018-04-23T06:52:46.459Z,9.57
2018-04-23T06:55:15.591Z,7.97
2018-04-23T06:57:44.707Z,8.47
2018-04-23T07:00:13.859Z,13.23
2018-04-23T07:02:42.951Z,8.60
2018-04-23T07:05:12.124Z,9.60
2018-04-23T07:07:41.205Z,10.53
2018-04-23T07:10:10.335Z,9.63
2018-04-23T07:12:39.427Z,7.83
2018-04-23T07:15:08.577Z,7.33
2018-04-23T07:17:37.679Z,10.97
2018-04-23T07:20:06.836Z,11.90
2018-04-23T07:22:35.938Z,10.33
2018-04-23T07:25:05.056Z,13.00
2018-04-23T07:27:34.178Z,12.30
2018-04-23T07:30:03.316Z,15.83
2018-04-23T07:32:32.431Z,8.97
2018-04-23T07:35:01.568Z,13.53
2018-04-23T07:37:30.692Z,8.97
2018-04-23T07:39:59.847Z,9.90
2018-04-23T07:42:29.035Z,11.13
2018-04-23T07:44:58.256Z,8.10
2018-04-23T07:47:27.374Z,6.33
2018-04-23T07:49:56.529Z,9.83
2018-04-23T07:52:25.635Z,7.80
2018-04-23T07:54:54.775Z,7.97
2018-04-23T07:57:23.923Z,9.43
2018-04-23T07:59:53.045Z,9.50
2018-04-23T08:02:22.205Z,8.97
2018-04-23T08:04:51.314Z,11.17
2018-04-23T08:07:20.503Z,10.60
2018-04-23T08:09:49.589Z,10.10
2018-04-23T08:12:18.770Z,9.87
2018-04-23T08:14:47.852Z,8.10
2018-04-23T08:17:16.996Z,10.87
2018-04-23T08:19:46.183Z,9.83
2018-04-23T08:22:15.293Z,11.27
2018-04-23T08:24:44.396Z,11.07
2018-04-23T08:27:13.498Z,9.63
2018-04-23T08:29:42.649Z,6.17
2018-04-23T08:32:11.793Z,13.53
2018-04-23T08:34:40.905Z,10.17
2018-04-23T08:37:10.023Z,8.07
2018-04-23T08:39:39.141Z,8.67
2018-04-23T08:42:08.271Z,10.47
2018-04-23T08:44:37.379Z,5.87
2018-04-23T08:47:06.483Z,8.03
2018-04-23T08:49:35.616Z,10.37
2018-04-23T08:52:04.724Z,12.70
2018-04-23T08:54:33.859Z,11.90
2018-04-23T08:57:02.992Z,13.83
2018-04-23T08:59:32.217Z,12.93
2018-04-23T09:02:01.347Z,9.70
2018-04-23T09:04:30.471Z,8.53
2018-04-23T09:06:59.604Z,9.73
2018-04-23T09:09:28.702Z,12.33
2018-04-23T09:11:57.872Z,11.03
2018-04-23T09:14:26.971Z,8.93
2018-04-23T09:16:56.120Z,10.77
2018-04-23T09:19:25.232Z,10.00
2018-04-23T09:21:54.336Z,11.63
2018-04-23T09:24:23.468Z,10.00
2018-04-23T09:26:52.588Z,13.13
2018-04-23T09:29:21.717Z,16.13
2018-04-23T09:31:50.575Z,9.70
2018-04-23T09:34:19.414Z,11.33
2018-04-23T09:36:48.239Z,10.27
2018-04-23T09:39:17.064Z,12.60
2018-04-23T09:41:46.140Z,15.13
2018-04-23T09:44:14.967Z,12.20
2018-04-23T09:46:43.789Z,11.80
2018-04-23T09:49:12.616Z,20.77
2018-04-23T09:51:41.437Z,13.83
2018-04-23T09:54:10.319Z,10.10
2018-04-23T09:56:39.145Z,15.73
2018-04-23T09:59:08.002Z,14.67
2018-04-23T10:01:36.818Z,13.37
2018-04-23T10:04:05.908Z,16.93
2018-04-23T10:06:34.931Z,13.07
2018-04-23T10:09:03.744Z,15.87
2018-04-23T10:11:32.576Z,14.87
2018-04-23T10:14:01.406Z,15.17
2018-04-23T10:16:30.231Z,12.60
2018-04-23T10:18:59.075Z,11.73
2018-04-23T10:21:28.104Z,14.90
2018-04-23T10:23:56.956Z,14.17
2018-04-23T10:26:25.906Z,11.00
2018-04-23T10:28:54.702Z,16.97
2018-04-23T10:31:23.563Z,16.77
2018-04-23T10:33:52.376Z,14.73
2018-04-23T10:36:21.208Z,12.87
2018-04-23T10:38:50.045Z,14.27
2018-04-23T10:41:18.865Z,11.33
2018-04-23T10:43:47.708Z,17.10
2018-04-23T10:46:16.518Z,16.30
2018-04-23T10:48:45.346Z,16.47
2018-04-23T10:51:14.149Z,14.50
2018-04-23T10:53:43.054Z,14.57
2018-04-23T10:56:11.904Z,13.27
2018-04-23T10:58:40.730Z,15.63
2018-04-23T11:01:09.553Z,18.73
2018-04-23T11:03:38.375Z,14.10
2018-04-23T11:06:07.184Z,16.50
2018-04-23T11:08:36.019Z,17.40
2018-04-23T11:11:04.833Z,16.40
2018-04-23T11:13:33.687Z,14.63
2018-04-23T11:16:02.499Z,16.00
2018-04-23T11:18:31.370Z,10.47
2018-04-23T11:21:00.256Z,9.90
2018-04-23T11:23:29.056Z,13.97
2018-04-23T11:25:57.931Z,9.27
2018-04-23T11:28:26.785Z,8.60
2018-04-23T11:30:55.688Z,11.13
2018-04-23T11:33:24.528Z,10.80
2018-04-23T11:35:53.474Z,19.90
2018-04-23T11:38:22.287Z,12.10
2018-04-23T11:40:51.135Z,19.33
2018-04-23T11:43:20.006Z,10.67
2018-04-23T11:45:48.936Z,10.20
2018-04-23T11:48:17.733Z,13.67
2018-04-23T11:50:46.656Z,10.90
2018-04-23T11:53:16.510Z,8.00
2018-04-23T11:55:45.372Z,12.53
2018-04-23T11:58:14.232Z,11.17
2018-04-23T12:00:43.091Z,9.83
2018-04-23T12:03:11.925Z,16.93
2018-04-23T12:05:40.735Z,13.57
2018-04-23T12:08:09.571Z,13.67
2018-04-23T12:10:38.390Z,7.97
2018-04-23T12:13:07.220Z,10.40
2018-04-23T12:15:36.039Z,7.90
2018-04-23T12:18:04.868Z,9.00
2018-04-23T12:20:33.706Z,8.03
2018-04-23T12:23:02.526Z,10.57
2018-04-23T12:25:31.396Z,9.17
2018-04-23T12:28:00.221Z,7.07
2018-04-23T12:30:29.028Z,6.53
2018-04-23T12:32:57.912Z,11.20
2018-04-23T12:35:26.738Z,11.80
2018-04-23T12:37:55.639Z,10.83
2018-04-23T12:40:24.514Z,12.10
2018-04-23T12:42:53.723Z,10.60
2018-04-23T12:45:22.586Z,10.17
2018-04-23T12:47:51.392Z,7.43
2018-04-23T12:50:20.293Z,9.90
2018-04-23T12:52:49.159Z,13.40
2018-04-23T12:55:17.967Z,9.57
2018-04-23T12:57:46.767Z,8.40
2018-04-23T13:00:15.599Z,7.60
2018-04-23T13:02:44.444Z,8.57
2018-04-23T13:05:13.335Z,10.97
2018-04-23T13:07:42.119Z,6.97
2018-04-23T13:10:10.956Z,9.97
2018-04-23T13:12:39.767Z,9.93
2018-04-23T13:15:08.649Z,9.77
2018-04-23T13:17:37.450Z,12.20
2018-04-23T13:20:06.276Z,9.83
2018-04-23T13:22:35.142Z,13.67
2018-04-23T13:25:04.006Z,11.97
2018-04-23T13:27:33.130Z,16.90
2018-04-23T13:30:02.061Z,16.17
2018-04-23T13:32:29.560Z,11.27
2018-04-23T13:34:57.012Z,11.13
2018-04-23T13:37:24.488Z,13.83
2018-04-23T13:39:53.311Z,14.50
2018-04-23T13:42:22.259Z,11.97
2018-04-23T13:44:51.051Z,26.17
2018-04-23T13:47:19.891Z,20.63
2018-04-23T13:49:48.712Z,24.77
2018-04-23T13:52:17.568Z,20.23
2018-04-23T13:54:46.387Z,13.33
2018-04-23T13:57:15.210Z,14.77
2018-04-23T13:59:44.071Z,15.47
2018-04-23T14:02:13.012Z,13.97
2018-04-23T14:04:41.816Z,21.20
2018-04-23T14:07:10.635Z,17.57
2018-04-23T14:09:38.147Z,23.10
2018-04-23T14:12:06.536Z,18.50
2018-04-23T14:14:35.156Z,21.13
2018-04-23T14:17:02.644Z,17.83
2018-04-23T14:19:30.173Z,17.23
2018-04-23T14:21:57.661Z,14.97
2018-04-23T14:24:25.252Z,18.73
2018-04-23T14:26:53.909Z,21.57
2018-04-23T14:29:21.425Z,22.50
2018-04-23T14:31:48.938Z,15.60
2018-04-23T14:34:16.461Z,13.83
2018-04-23T14:36:43.985Z,26.37
2018-04-23T14:39:12.245Z,21.83
2018-04-23T14:41:41.673Z,14.70
2018-04-23T14:44:09.146Z,14.00
2018-04-23T14:46:36.644Z,21.67
2018-04-23T14:49:04.254Z,24.77
2018-04-23T14:51:31.732Z,19.97
2018-04-23T14:53:59.212Z,19.93
2018-04-23T14:56:26.755Z,19.60
2018-04-23T14:58:54.224Z,20.73
2018-04-23T15:01:21.781Z,23.67
2018-04-23T15:03:49.275Z,19.83
2018-04-23T15:06:16.836Z,17.53
2018-04-23T15:08:45.056Z,16.50
2018-04-23T15:11:12.550Z,21.97
2018-04-23T15:13:40.034Z,20.70
2018-04-23T15:16:08.285Z,13.97
2018-04-23T15:18:35.806Z,17.47
2018-04-23T15:21:03.274Z,17.40
2018-04-23T15:23:30.767Z,12.47
2018-04-23T15:25:58.257Z,13.67
2018-04-23T15:28:26.616Z,17.27
2018-04-23T15:30:54.093Z,27.93
2018-04-23T15:33:21.594Z,17.27
2018-04-23T15:35:49.046Z,18.07
2018-04-23T15:38:16.544Z,15.93
2018-04-23T15:40:44.008Z,12.67
2018-04-23T15:43:12.270Z,10.77
2018-04-23T15:45:39.740Z,11.40
2018-04-23T15:48:08.083Z,13.70
2018-04-23T15:50:35.537Z,15.80
2018-04-23T15:53:03.071Z,12.57
2018-04-23T15:55:31.141Z,14.43
2018-04-23T15:57:58.598Z,16.20
2018-04-23T16:00:26.126Z,34.33
2018-04-23T16:02:54.818Z,14.10
2018-04-23T16:05:22.304Z,19.90
2018-04-23T16:07:49.794Z,16.63
2018-04-23T16:10:17.309Z,12.47
2018-04-23T16:12:44.774Z,13.77
2018-04-23T16:15:12.312Z,19.13
2018-04-23T16:17:40.562Z,10.53
2018-04-23T16:20:08.053Z,12.10
2018-04-23T16:22:35.528Z,10.07
2018-04-23T16:25:03.093Z,12.57
2018-04-23T16:27:30.573Z,10.00
2018-04-23T16:29:58.165Z,11.73
2018-04-23T16:32:25.663Z,9.30
2018-04-23T16:34:53.127Z,5.50
2018-04-23T16:37:20.613Z,11.00
2018-04-23T16:39:48.171Z,9.00
2018-04-23T16:42:15.615Z,9.27
2018-04-23T16:44:43.091Z,13.87
2018-04-23T16:47:10.564Z,8.80
2018-04-23T16:49:38.857Z,9.83
2018-04-23T16:52:07.125Z,13.23
2018-04-23T16:54:35.377Z,8.17
2018-04-23T16:57:02.861Z,7.17
2018-04-23T16:59:31.107Z,9.07
2018-04-23T17:01:58.592Z,9.70
2018-04-23T17:04:26.808Z,7.13
2018-04-23T17:06:54.335Z,11.17
2018-04-23T17:09:22.599Z,10.13
2018-04-23T17:11:50.100Z,8.87
2018-04-23T17:14:17.580Z,10.90
2018-04-23T17:16:45.084Z,6.13
2018-04-23T17:19:13.355Z,10.33
2018-04-23T17:21:41.579Z,10.27
2018-04-23T17:24:09.028Z,12.67
2018-04-23T17:26:36.576Z,9.57
2018-04-23T17:29:04.014Z,8.00
2018-04-23T17:31:31.534Z,11.77
2018-04-23T17:33:59.328Z,12.50
2018-04-23T17:36:27.753Z,11.50
2018-04-23T17:38:55.352Z,16.83
2018-04-23T17:41:22.860Z,12.20
2018-04-23T17:43:50.324Z,9.80
2018-04-23T17:46:17.840Z,16.73
2018-04-23T17:48:46.069Z,13.83
2018-04-23T17:51:13.573Z,11.20
2018-04-23T17:53:41.836Z,9.20
2018-04-23T17:56:09.326Z,18.60
2018-04-23T17:58:37.595Z,12.57
2018-04-23T18:01:05.878Z,15.00
2018-04-23T18:03:33.398Z,21.13
2018-04-23T18:06:01.668Z,14.47
2018-04-23T18:08:29.171Z,15.03
2018-04-23T18:10:56.666Z,12.80
2018-04-23T18:13:24.222Z,10.13
2018-04-23T18:15:51.686Z,13.37
2018-04-23T18:18:19.211Z,9.60
2018-04-23T18:20:46.730Z,7.17
2018-04-23T18:23:14.233Z,10.70
2018-04-23T18:25:41.720Z,10.90
2018-04-23T18:28:09.236Z,11.47
2018-04-23T18:30:37.478Z,14.47
2018-04-23T18:33:05.043Z,7.93
2018-04-23T18:35:32.524Z,10.63
2018-04-23T18:38:00.008Z,9.73
2018-04-23T18:40:27.555Z,9.60
2018-04-23T18:42:55.029Z,7.67
2018-04-23T18:45:22.557Z,12.63
2018-04-23T18:47:50.039Z,9.80
2018-04-23T18:50:17.574Z,9.67
2018-04-23T18:55:19.838Z,9.77
2018-04-23T18:57:47.326Z,10.50
2018-04-23T19:00:14.843Z,7.90
2018-04-23T19:02:43.092Z,10.07
2018-04-23T19:05:10.592Z,11.10
2018-04-23T19:07:38.144Z,10.53
2018-04-23T19:10:05.657Z,11.17
2018-04-23T19:12:33.207Z,13.37
2018-04-23T19:15:00.698Z,12.40
2018-04-23T19:17:28.229Z,8.40
2018-04-23T19:19:55.712Z,9.47
2018-04-23T19:22:23.329Z,10.33
2018-04-23T19:24:50.808Z,12.47
2018-04-23T19:27:18.332Z,12.33
2018-04-23T19:29:46.601Z,11.67
2018-04-23T19:32:14.864Z,12.00
2018-04-23T19:34:42.343Z,11.20
2018-04-23T19:37:10.652Z,12.70
2018-04-23T19:39:38.151Z,12.67
2018-04-23T19:42:05.713Z,12.77
2018-04-23T19:44:33.261Z,11.50
2018-04-23T19:47:00.758Z,11.87
2018-04-23T19:49:29.000Z,20.27
2018-04-23T19:51:56.499Z,14.77
2018-04-23T19:54:24.003Z,15.20
2018-04-23T19:56:51.504Z,14.23
2018-04-23T19:59:20.368Z,18.80
2018-04-23T20:01:49.196Z,16.13
2018-04-23T20:04:18.086Z,15.87
2018-04-23T20:06:47.005Z,12.30
2018-04-23T20:09:15.840Z,13.43
2018-04-23T20:11:44.676Z,16.53
2018-04-23T20:14:13.526Z,10.87
2018-04-23T20:16:42.357Z,10.97
2018-04-23T20:19:11.200Z,10.77
2018-04-23T20:21:40.065Z,12.87
2018-04-23T20:24:07.612Z,16.37
2018-04-23T20:26:35.133Z,14.87
2018-04-23T20:29:02.601Z,12.37
2018-04-23T20:31:30.124Z,11.87
2018-04-23T20:33:58.395Z,14.73
2018-04-23T20:36:25.908Z,15.63
2018-04-23T20:38:53.379Z,12.67
2018-04-23T20:41:20.924Z,10.40
2018-04-23T20:43:48.422Z,15.13
2018-04-23T20:46:15.910Z,11.77
2018-04-23T20:48:43.398Z,14.87
2018-04-23T20:51:10.901Z,12.77
2018-04-23T20:53:38.405Z,11.80
2018-04-23T20:56:05.859Z,12.77
2018-04-23T20:58:33.370Z,11.97
2018-04-23T21:01:00.844Z,12.17
2018-04-23T21:03:29.111Z,12.87
2018-04-23T21:05:57.366Z,10.93
2018-04-23T21:08:24.866Z,12.53
2018-04-23T21:10:53.125Z,16.63
2018-04-23T21:13:20.597Z,10.97
2018-04-23T21:15:48.848Z,12.00
2018-04-23T21:18:16.320Z,11.67
2018-04-23T21:20:44.590Z,13.43
2018-04-23T21:23:12.152Z,13.60
2018-04-23T21:25:40.429Z,14.30
2018-04-23T21:28:07.896Z,12.63
2018-04-23T21:30:36.166Z,9.63
2018-04-23T21:33:03.647Z,13.80
2018-04-23T21:35:31.153Z,11.80
2018-04-23T21:37:58.626Z,13.70
2018-04-23T21:40:26.154Z,13.03
2018-04-23T21:42:53.876Z,11.47
2018-04-23T21:45:22.132Z,10.87
2018-04-23T21:47:49.612Z,10.90
2018-04-23T21:50:17.846Z,11.53
2018-04-23T21:52:46.108Z,9.00
2018-04-23T21:55:13.567Z,12.40
2018-04-23T21:57:41.065Z,10.87
2018-04-23T22:00:09.317Z,11.37
2018-04-23T22:02:36.821Z,11.93
2018-04-23T22:05:04.294Z,10.07
2018-04-23T22:07:31.780Z,10.10
2018-04-23T22:09:59.240Z,12.10
2018-04-23T22:12:26.704Z,10.43
2018-04-23T22:14:54.197Z,9.47
2018-04-23T22:17:22.516Z,11.60
2018-04-23T22:19:50.000Z,11.20
2018-04-23T22:22:17.489Z,8.23
2018-04-23T22:24:45.837Z,10.37
2018-04-23T22:27:13.325Z,12.40
2018-04-23T22:29:41.602Z,12.17
2018-04-23T22:32:09.858Z,10.77
2018-04-23T22:34:37.348Z,10.90
2018-04-23T22:37:04.816Z,11.53
2018-04-23T22:39:32.296Z,11.23
2018-04-23T22:41:59.766Z,10.43
2018-04-23T22:44:27.275Z,11.67
2018-04-23T22:46:55.499Z,11.53
2018-04-23T22:49:22.979Z,12.63
2018-04-23T22:51:51.224Z,11.30
2018-04-23T22:54:18.704Z,14.23
2018-04-23T22:56:46.165Z,13.83
2018-04-23T22:59:13.627Z,12.93
2018-04-23T23:01:41.872Z,14.50
2018-04-23T23:04:09.324Z,11.43
2018-04-23T23:06:36.824Z,12.93
2018-04-23T23:09:04.326Z,15.70
2018-04-23T23:11:31.813Z,14.63
2018-04-23T23:13:59.293Z,13.17
2018-04-23T23:16:26.767Z,12.17
2018-04-23T23:18:55.020Z,11.00
2018-04-23T23:21:22.500Z,16.87
2018-04-23T23:23:50.735Z,10.83
2018-04-23T23:26:18.231Z,14.00
2018-04-23T23:28:46.836Z,13.90
2018-04-23T23:31:14.307Z,14.20
2018-04-23T23:33:41.836Z,16.43
2018-04-23T23:36:10.092Z,13.13
2018-04-23T23:38:37.640Z,12.57
2018-04-23T23:41:05.099Z,17.70
2018-04-23T23:43:32.594Z,14.53
2018-04-23T23:46:00.069Z,14.57
2018-04-23T23:48:27.590Z,19.57
2018-04-23T23:50:55.041Z,18.63
2018-04-23T23:53:23.291Z,14.87
2018-04-23T23:55:50.764Z,15.47
2018-04-23T23:58:18.254Z,21.77
